createdAt,value
2023-02-25T00:00:34.391Z,82.50
2023-02-25T00:03:01.735Z,84.36
2023-02-25T00:05:31.736Z,84.67
2023-02-25T00:07:58.741Z,84.09
2023-02-25T00:10:25.333Z,83.83
2023-02-25T00:12:51.885Z,83.74
2023-02-25T00:15:18.551Z,82.63
2023-02-25T00:17:45.265Z,82.82
2023-02-25T00:20:13.671Z,81.99
2023-02-25T00:22:40.636Z,82.74
2023-02-25T00:25:09.145Z,83.68
2023-02-25T00:27:35.776Z,82.53
2023-02-25T00:30:02.366Z,81.77
2023-02-25T00:32:29.256Z,82.97
2023-02-25T00:34:57.472Z,83.91
2023-02-25T00:37:24.065Z,85.13
2023-02-25T00:39:50.622Z,85.45
2023-02-25T00:42:18.114Z,82.44
2023-02-25T00:44:45.739Z,81.50
2023-02-25T00:47:12.326Z,82.18
2023-02-25T00:49:38.936Z,82.76
2023-02-25T00:52:05.548Z,83.12
2023-02-25T00:54:33.578Z,83.18
2023-02-25T00:57:00.204Z,84.41
2023-02-25T00:59:27.063Z,85.33
2023-02-25T01:01:53.758Z,85.40
2023-02-25T01:04:20.356Z,86.12
2023-02-25T01:06:47.177Z,86.30
2023-02-25T01:09:14.079Z,86.52
2023-02-25T01:11:50.004Z,86.70
2023-02-25T01:14:19.510Z,87.00
2023-02-25T01:16:47.886Z,86.53
2023-02-25T01:19:20.852Z,86.50
2023-02-25T01:21:49.061Z,86.35
2023-02-25T01:24:21.844Z,86.35
2023-02-25T01:26:50.183Z,86.68
2023-02-25T01:29:18.935Z,86.79
2023-02-25T01:31:46.090Z,87.24
2023-02-25T01:34:17.473Z,87.25
2023-02-25T01:36:44.796Z,86.84
2023-02-25T01:39:12.361Z,86.62
2023-02-25T01:41:39.381Z,85.49
2023-02-25T01:44:09.846Z,85.18
2023-02-25T01:46:37.401Z,84.30
2023-02-25T01:49:08.770Z,85.71
2023-02-25T01:51:36.568Z,85.58
2023-02-25T01:54:04.143Z,86.82
2023-02-25T01:56:30.976Z,86.81
2023-02-25T01:58:58.633Z,87.05
2023-02-25T02:01:27.070Z,86.85
2023-02-25T02:03:53.841Z,86.89
2023-02-25T02:06:28.545Z,85.29
2023-02-25T02:08:55.183Z,84.66
2023-02-25T02:11:21.768Z,85.47
2023-02-25T02:13:51.005Z,84.92
2023-02-25T02:16:44.507Z,86.82
2023-02-25T02:19:28.294Z,85.76
2023-02-25T02:22:13.202Z,85.89
2023-02-25T02:24:51.671Z,86.71
2023-02-25T02:28:03.552Z,86.65
2023-02-25T02:30:55.308Z,85.57
2023-02-25T02:33:37.941Z,86.14
2023-02-25T02:36:29.466Z,85.35
2023-02-25T02:39:03.356Z,85.85
2023-02-25T02:41:35.424Z,85.89
2023-02-25T02:44:23.362Z,86.57
2023-02-25T02:46:57.649Z,85.71
2023-02-25T02:49:40.934Z,85.89
2023-02-25T02:52:15.232Z,84.49
2023-02-25T02:54:52.079Z,84.09
2023-02-25T02:57:21.395Z,84.78
2023-02-25T02:59:54.040Z,84.08
2023-02-25T03:02:24.129Z,83.86
2023-02-25T03:04:54.056Z,84.82
2023-02-25T03:07:21.949Z,85.96
2023-02-25T03:09:50.887Z,85.02
2023-02-25T03:12:17.781Z,83.53
2023-02-25T03:14:44.368Z,82.75
2023-02-25T03:17:14.993Z,84.19
2023-02-25T03:20:07.114Z,82.82
2023-02-25T03:22:39.407Z,82.63
2023-02-25T03:25:15.146Z,84.69
2023-02-25T03:27:43.799Z,84.73
2023-02-25T03:30:38.001Z,84.04
2023-02-25T03:33:18.991Z,83.14
2023-02-25T03:35:46.735Z,84.62
2023-02-25T03:38:17.385Z,84.32
2023-02-25T03:40:44.135Z,83.28
2023-02-25T03:43:15.984Z,83.31
2023-02-25T03:45:44.256Z,83.93
2023-02-25T03:48:12.787Z,83.67
2023-02-25T03:50:49.915Z,84.40
2023-02-25T03:53:16.676Z,84.74
2023-02-25T03:55:50.477Z,84.04
2023-02-25T03:58:17.303Z,84.57
2023-02-25T04:00:46.350Z,84.51
2023-02-25T04:03:12.896Z,85.41
2023-02-25T04:05:39.557Z,84.60
2023-02-25T04:08:15.835Z,85.31
2023-02-25T04:10:44.033Z,84.83
2023-02-25T04:13:11.858Z,84.26
2023-02-25T04:15:38.898Z,84.65
2023-02-25T04:18:05.663Z,84.59
2023-02-25T04:20:33.275Z,84.85
2023-02-25T04:23:00.936Z,84.64
2023-02-25T04:25:27.820Z,84.17
2023-02-25T04:27:54.595Z,85.08
2023-02-25T04:30:21.496Z,84.50
2023-02-25T04:32:48.096Z,83.47
2023-02-25T04:35:14.690Z,83.89
2023-02-25T04:37:42.067Z,84.72
2023-02-25T04:40:14.054Z,84.95
2023-02-25T04:42:40.931Z,86.12
2023-02-25T04:45:09.381Z,84.79
2023-02-25T04:47:36.104Z,83.39
2023-02-25T04:50:03.193Z,84.48
2023-02-25T04:52:29.946Z,85.84
2023-02-25T04:54:56.507Z,86.08
2023-02-25T04:57:23.040Z,85.40
2023-02-25T04:59:49.603Z,86.71
2023-02-25T05:02:16.302Z,84.88
2023-02-25T05:04:43.041Z,85.25
2023-02-25T05:07:09.800Z,84.77
2023-02-25T05:09:36.336Z,83.79
2023-02-25T05:12:03.332Z,85.61
2023-02-25T05:14:32.524Z,87.30
2023-02-25T05:16:59.473Z,87.41
2023-02-25T05:19:26.165Z,86.71
2023-02-25T05:21:53.720Z,85.83
2023-02-25T05:24:20.530Z,86.30
2023-02-25T05:26:47.080Z,86.32
2023-02-25T05:29:13.632Z,85.20
2023-02-25T05:31:40.620Z,85.59
2023-02-25T05:34:07.287Z,84.92
2023-02-25T05:36:33.837Z,85.31
2023-02-25T05:39:03.620Z,84.63
2023-02-25T05:41:30.425Z,84.29
2023-02-25T05:43:58.319Z,86.12
2023-02-25T05:46:25.704Z,86.35
2023-02-25T05:48:52.661Z,85.79
2023-02-25T05:51:20.398Z,84.39
2023-02-25T05:53:48.118Z,83.52
2023-02-25T05:56:17.547Z,85.30
2023-02-25T05:58:44.175Z,86.24
2023-02-25T06:01:13.685Z,85.94
2023-02-25T06:03:41.886Z,85.68
2023-02-25T06:06:08.697Z,86.47
2023-02-25T06:08:35.656Z,86.93
2023-02-25T06:11:02.289Z,88.65
2023-02-25T06:13:28.830Z,87.25
2023-02-25T06:15:55.471Z,85.55
2023-02-25T06:18:22.067Z,87.10
2023-02-25T06:20:48.824Z,88.68
2023-02-25T06:23:15.379Z,87.45
2023-02-25T06:25:42.068Z,87.18
2023-02-25T06:28:08.607Z,86.60
2023-02-25T06:30:35.269Z,86.74
2023-02-25T06:33:01.878Z,86.11
2023-02-25T06:35:28.784Z,86.89
2023-02-25T06:37:59.680Z,86.98
2023-02-25T06:40:27.318Z,86.26
2023-02-25T06:42:53.848Z,87.17
2023-02-25T06:45:20.724Z,86.99
2023-02-25T06:47:47.282Z,87.06
2023-02-25T06:50:14.391Z,87.83
2023-02-25T06:52:40.958Z,87.52
2023-02-25T06:55:07.915Z,87.80
2023-02-25T06:57:35.010Z,87.60
2023-02-25T07:00:01.610Z,87.16
2023-02-25T07:02:28.331Z,88.38
2023-02-25T07:04:55.184Z,87.88
2023-02-25T07:07:22.244Z,87.47
2023-02-25T07:09:48.922Z,87.95
2023-02-25T07:12:15.496Z,88.20
2023-02-25T07:14:42.047Z,87.48
2023-02-25T07:17:08.636Z,90.59
2023-02-25T07:19:35.249Z,89.70
2023-02-25T07:22:01.892Z,88.39
2023-02-25T07:24:28.449Z,86.78
2023-02-25T07:26:55.668Z,87.53
2023-02-25T07:29:22.778Z,88.27
2023-02-25T07:31:49.490Z,87.00
2023-02-25T07:34:16.168Z,85.95
2023-02-25T07:36:42.736Z,86.48
2023-02-25T07:39:11.498Z,87.39
2023-02-25T07:41:38.568Z,87.26
2023-02-25T07:44:06.076Z,86.73
2023-02-25T07:46:33.124Z,86.24
2023-02-25T07:48:59.740Z,87.22
2023-02-25T07:51:26.614Z,86.87
2023-02-25T07:53:54.890Z,85.96
2023-02-25T07:56:22.710Z,85.39
2023-02-25T07:58:49.266Z,86.16
2023-02-25T08:01:23.795Z,86.82
2023-02-25T08:03:52.218Z,86.09
2023-02-25T08:06:19.012Z,86.44
2023-02-25T08:08:45.558Z,87.87
2023-02-25T08:11:13.979Z,86.86
2023-02-25T08:13:41.569Z,86.42
2023-02-25T08:16:10.468Z,86.74
2023-02-25T08:18:37.802Z,86.17
2023-02-25T08:21:04.828Z,86.31
2023-02-25T08:23:31.732Z,85.28
2023-02-25T08:25:58.918Z,86.27
2023-02-25T08:28:27.141Z,86.07
2023-02-25T08:30:53.910Z,84.83
2023-02-25T08:33:20.847Z,85.31
2023-02-25T08:35:47.398Z,85.13
2023-02-25T08:38:14.244Z,85.14
2023-02-25T08:40:41.000Z,84.49
2023-02-25T08:43:08.267Z,84.94
2023-02-25T08:45:37.173Z,85.72
2023-02-25T08:48:04.712Z,84.86
2023-02-25T08:50:31.344Z,85.22
2023-02-25T08:52:58.339Z,83.99
2023-02-25T08:55:25.491Z,84.27
2023-02-25T08:57:52.958Z,84.75
2023-02-25T09:00:21.176Z,84.36
2023-02-25T09:02:48.152Z,83.76
2023-02-25T09:05:14.743Z,84.61
2023-02-25T09:07:41.327Z,83.52
2023-02-25T09:10:09.311Z,82.86
2023-02-25T09:12:39.806Z,83.76
2023-02-25T09:15:07.570Z,83.54
2023-02-25T09:17:35.247Z,82.95
2023-02-25T09:20:01.917Z,81.77
2023-02-25T09:22:28.608Z,82.03
2023-02-25T09:24:56.165Z,82.73
2023-02-25T09:27:22.786Z,82.37
2023-02-25T09:29:49.465Z,81.91
2023-02-25T09:32:19.785Z,81.95
2023-02-25T09:34:49.199Z,83.29
2023-02-25T09:37:16.633Z,84.79
2023-02-25T09:39:43.277Z,85.31
2023-02-25T09:42:13.905Z,85.62
2023-02-25T09:44:46.312Z,84.71
2023-02-25T09:47:19.557Z,85.08
2023-02-25T09:49:56.127Z,84.23
2023-02-25T09:52:28.784Z,82.85
2023-02-25T09:54:56.724Z,82.20
2023-02-25T09:57:23.827Z,81.96
2023-02-25T09:59:53.731Z,83.35
2023-02-25T10:02:35.891Z,83.13
2023-02-25T10:05:05.464Z,81.99
2023-02-25T10:07:35.970Z,81.22
2023-02-25T10:10:09.597Z,81.51
2023-02-25T10:12:54.292Z,81.63
2023-02-25T10:15:51.978Z,82.75
2023-02-25T10:18:25.116Z,81.76
2023-02-25T10:21:08.253Z,82.25
2023-02-25T10:23:59.663Z,81.63
2023-02-25T10:26:30.077Z,81.75
2023-02-25T10:29:00.803Z,80.30
2023-02-25T10:31:29.986Z,82.01
2023-02-25T10:33:58.551Z,81.92
2023-02-25T10:36:32.253Z,83.29
2023-02-25T10:38:59.360Z,83.92
2023-02-25T10:41:27.172Z,83.50
2023-02-25T10:43:55.201Z,81.79
2023-02-25T10:46:36.425Z,83.50
2023-02-25T10:49:16.382Z,83.24
2023-02-25T10:52:01.138Z,83.02
2023-02-25T10:54:27.910Z,82.14
2023-02-25T10:56:55.074Z,83.00
2023-02-25T10:59:31.984Z,82.01
2023-02-25T11:01:59.818Z,83.16
2023-02-25T11:04:36.118Z,81.90
2023-02-25T11:07:24.080Z,81.88
2023-02-25T11:10:19.560Z,80.73
2023-02-25T11:12:50.175Z,79.89
2023-02-25T11:15:50.123Z,79.38
2023-02-25T11:18:23.388Z,78.54
2023-02-25T11:20:58.375Z,77.65
2023-02-25T11:23:33.047Z,77.52
2023-02-25T11:25:59.999Z,77.80
2023-02-25T11:28:32.085Z,77.34
2023-02-25T11:31:12.043Z,77.09
2023-02-25T11:33:41.150Z,77.69
2023-02-25T11:36:07.985Z,76.65
2023-02-25T11:38:35.677Z,73.43
2023-02-25T11:41:03.161Z,75.49
2023-02-25T11:43:39.439Z,77.27
2023-02-25T11:46:28.133Z,78.68
2023-02-25T11:49:04.206Z,78.86
2023-02-25T11:51:41.001Z,79.09
2023-02-25T11:54:29.062Z,81.01
2023-02-25T11:57:18.207Z,80.59
2023-02-25T12:00:11.594Z,80.01
2023-02-25T12:03:20.455Z,77.83
2023-02-25T12:05:53.171Z,80.29
2023-02-25T12:08:53.827Z,81.68
2023-02-25T12:11:47.636Z,81.11
2023-02-25T12:14:35.998Z,80.39
2023-02-25T12:17:20.937Z,79.39
2023-02-25T12:20:18.642Z,79.52
2023-02-25T12:23:19.395Z,79.98
2023-02-25T12:25:51.910Z,79.67
2023-02-25T12:28:31.052Z,78.19
2023-02-25T12:31:25.221Z,80.20
2023-02-25T12:34:22.836Z,79.71
2023-02-25T12:37:13.245Z,79.71
2023-02-25T12:40:04.534Z,80.67
2023-02-25T12:42:53.761Z,82.17
2023-02-25T12:45:34.691Z,81.82
2023-02-25T12:48:26.633Z,81.67
2023-02-25T12:51:15.058Z,81.86
2023-02-25T12:53:45.028Z,83.24
2023-02-25T12:56:30.902Z,83.90
2023-02-25T12:59:28.300Z,83.31
2023-02-25T13:02:16.392Z,81.64
2023-02-25T13:05:23.535Z,79.74
2023-02-25T13:08:06.409Z,82.65
2023-02-25T13:11:00.668Z,80.04
2023-02-25T13:13:36.361Z,79.31
2023-02-25T13:16:34.071Z,79.58
2023-02-25T13:19:33.187Z,79.06
2023-02-25T13:22:12.559Z,78.33
2023-02-25T13:25:12.560Z,78.42
2023-02-25T13:28:16.492Z,78.70
2023-02-25T13:30:58.135Z,78.36
2023-02-25T13:33:58.003Z,79.78
2023-02-25T13:36:52.056Z,78.06
2023-02-25T13:39:56.482Z,78.37
2023-02-25T13:42:35.079Z,79.22
2023-02-25T13:45:39.975Z,79.09
2023-02-25T13:48:36.931Z,80.41
2023-02-25T13:51:45.312Z,81.15
2023-02-25T13:54:27.286Z,81.73
2023-02-25T13:57:05.620Z,81.31
2023-02-25T13:59:58.213Z,80.52
2023-02-25T14:02:43.765Z,79.85
2023-02-25T14:05:47.642Z,78.13
2023-02-25T14:08:23.929Z,80.19
2023-02-25T14:10:55.342Z,79.89
2023-02-25T14:13:45.781Z,82.14
2023-02-25T14:16:21.092Z,80.64
2023-02-25T14:18:51.002Z,79.56
2023-02-25T14:21:32.122Z,78.48
2023-02-25T14:24:29.223Z,79.39
2023-02-25T14:27:32.164Z,79.57
2023-02-25T14:30:13.806Z,81.22
2023-02-25T14:32:50.996Z,80.23
2023-02-25T14:35:26.550Z,81.98
2023-02-25T14:38:36.043Z,81.62
2023-02-25T14:41:27.089Z,78.36
2023-02-25T14:43:57.554Z,78.55
2023-02-25T14:46:43.203Z,78.89
2023-02-25T14:49:16.539Z,78.04
2023-02-25T14:52:11.915Z,79.86
2023-02-25T14:54:47.490Z,79.27
2023-02-25T14:57:40.160Z,78.07
2023-02-25T15:00:41.211Z,77.68
2023-02-25T15:03:26.620Z,78.07
2023-02-25T15:06:02.228Z,77.73
2023-02-25T15:09:18.022Z,77.23
2023-02-25T15:12:22.268Z,75.94
2023-02-25T15:15:20.133Z,73.79
2023-02-25T15:18:17.749Z,75.68
2023-02-25T15:20:44.663Z,75.13
2023-02-25T15:23:19.853Z,75.95
2023-02-25T15:25:47.597Z,75.52
2023-02-25T15:28:29.334Z,75.23
2023-02-25T15:30:58.922Z,74.96
2023-02-25T15:33:41.772Z,74.82
2023-02-25T15:36:14.421Z,74.58
2023-02-25T15:38:50.926Z,75.28
2023-02-25T15:41:26.874Z,74.16
2023-02-25T15:44:03.060Z,74.71
2023-02-25T15:46:35.317Z,74.79
2023-02-25T15:49:21.435Z,76.21
2023-02-25T15:51:51.536Z,75.54
2023-02-25T15:54:30.459Z,75.67
2023-02-25T15:57:27.116Z,75.92
2023-02-25T15:59:58.147Z,74.66
2023-02-25T16:02:30.793Z,76.10
2023-02-25T16:05:02.473Z,78.54
2023-02-25T16:07:38.509Z,79.45
2023-02-25T16:10:26.881Z,80.23
2023-02-25T16:12:55.726Z,80.59
2023-02-25T16:15:26.866Z,79.93
2023-02-25T16:17:56.220Z,79.16
2023-02-25T16:20:30.346Z,81.60
2023-02-25T16:22:59.489Z,82.37
2023-02-25T16:26:00.000Z,82.43
2023-02-25T16:29:09.848Z,81.97
2023-02-25T16:31:54.921Z,82.36
2023-02-25T16:34:43.323Z,82.04
2023-02-25T16:37:15.830Z,81.43
2023-02-25T16:39:42.505Z,82.10
2023-02-25T16:42:12.780Z,81.87
2023-02-25T16:44:40.284Z,81.28
2023-02-25T16:47:22.687Z,81.49
2023-02-25T16:49:50.088Z,81.88
2023-02-25T16:52:18.376Z,80.86
2023-02-25T16:54:46.155Z,82.06
2023-02-25T16:57:21.849Z,80.87
2023-02-25T16:59:50.814Z,80.77
2023-02-25T17:02:17.351Z,81.30
2023-02-25T17:04:47.767Z,81.12
2023-02-25T17:07:25.193Z,80.45
2023-02-25T17:10:01.993Z,81.51
2023-02-25T17:12:41.323Z,80.69
2023-02-25T17:15:14.649Z,79.34
2023-02-25T17:17:43.295Z,81.50
2023-02-25T17:20:18.201Z,80.67
2023-02-25T17:22:45.645Z,79.43
2023-02-25T17:25:16.085Z,81.16
2023-02-25T17:27:44.272Z,80.93
2023-02-25T17:30:34.261Z,80.33
2023-02-25T17:33:00.948Z,80.24
2023-02-25T17:35:28.159Z,79.78
2023-02-25T17:37:55.696Z,79.62
2023-02-25T17:40:25.961Z,79.44
2023-02-25T17:43:16.667Z,78.35
2023-02-25T17:45:50.126Z,79.81
2023-02-25T17:48:18.897Z,78.78
2023-02-25T17:50:52.235Z,79.94
2023-02-25T17:53:39.400Z,79.63
2023-02-25T17:56:16.074Z,80.41
2023-02-25T17:58:44.787Z,80.44
2023-02-25T18:01:29.625Z,80.66
2023-02-25T18:03:59.619Z,79.75
2023-02-25T18:06:30.630Z,80.26
2023-02-25T18:08:57.662Z,80.02
2023-02-25T18:11:28.646Z,80.28
2023-02-25T18:13:55.398Z,80.43
2023-02-25T18:16:35.632Z,80.90
2023-02-25T18:19:02.832Z,81.11
2023-02-25T18:21:29.599Z,80.66
2023-02-25T18:23:56.559Z,80.06
2023-02-25T18:26:25.341Z,80.03
2023-02-25T18:28:53.246Z,79.45
2023-02-25T18:31:20.424Z,80.49
2023-02-25T18:33:47.721Z,80.26
2023-02-25T18:36:26.960Z,80.74
2023-02-25T18:38:55.179Z,80.97
2023-02-25T18:41:21.790Z,79.98
2023-02-25T18:43:48.375Z,80.84
2023-02-25T18:46:15.760Z,80.22
2023-02-25T18:48:42.565Z,79.45
2023-02-25T18:51:13.724Z,79.19
2023-02-25T18:53:40.839Z,78.98
2023-02-25T18:56:08.752Z,79.61
2023-02-25T18:58:35.328Z,79.87
2023-02-25T19:01:02.366Z,80.22
2023-02-25T19:03:31.210Z,79.52
2023-02-25T19:05:58.073Z,78.84
2023-02-25T19:08:24.848Z,79.07
2023-02-25T19:10:52.350Z,79.72
2023-02-25T19:13:32.702Z,79.00
2023-02-25T19:15:59.308Z,79.90
2023-02-25T19:18:25.912Z,80.33
2023-02-25T19:20:52.812Z,80.18
2023-02-25T19:23:19.708Z,79.52
2023-02-25T19:25:47.851Z,79.88
2023-02-25T19:28:14.674Z,79.66
2023-02-25T19:30:43.240Z,79.93
2023-02-25T19:33:14.154Z,79.42
2023-02-25T19:35:44.737Z,78.99
2023-02-25T19:38:14.933Z,78.32
2023-02-25T19:40:44.167Z,78.99
2023-02-25T19:43:11.356Z,78.92
2023-02-25T19:45:40.454Z,78.91
2023-02-25T19:48:07.579Z,81.11
2023-02-25T19:50:35.046Z,79.92
2023-02-25T19:53:02.900Z,79.76
2023-02-25T19:55:29.721Z,79.07
2023-02-25T19:58:02.378Z,78.89
2023-02-25T20:00:29.091Z,79.04
2023-02-25T20:02:56.376Z,78.75
2023-02-25T20:05:24.764Z,77.60
2023-02-25T20:07:51.543Z,76.51
2023-02-25T20:10:19.550Z,78.13
2023-02-25T20:12:46.757Z,78.33
2023-02-25T20:15:14.503Z,78.63
2023-02-25T20:17:42.379Z,79.03
2023-02-25T20:20:10.278Z,77.99
2023-02-25T20:22:37.976Z,78.04
2023-02-25T20:25:05.824Z,78.65
2023-02-25T20:27:32.886Z,78.96
2023-02-25T20:29:59.579Z,79.40
2023-02-25T20:32:26.200Z,78.32
2023-02-25T20:34:53.079Z,77.86
2023-02-25T20:37:24.763Z,78.68
2023-02-25T20:39:53.826Z,78.28
2023-02-25T20:42:30.962Z,78.63
2023-02-25T20:44:58.725Z,79.56
2023-02-25T20:47:31.156Z,78.82
2023-02-25T20:49:58.470Z,78.76
2023-02-25T20:52:27.070Z,76.89
2023-02-25T20:54:54.203Z,77.72
2023-02-25T20:57:22.465Z,78.78
2023-02-25T20:59:49.896Z,79.50
2023-02-25T21:02:17.030Z,79.29
2023-02-25T21:04:44.386Z,79.32
2023-02-25T21:07:11.838Z,80.59
2023-02-25T21:09:38.767Z,80.08
2023-02-25T21:12:05.808Z,80.29
2023-02-25T21:14:32.815Z,80.02
2023-02-25T21:16:59.603Z,80.09
2023-02-25T21:19:28.175Z,79.66
2023-02-25T21:21:55.488Z,79.86
2023-02-25T21:24:22.691Z,80.91
2023-02-25T21:26:49.651Z,80.65
2023-02-25T21:29:16.321Z,80.57
2023-02-25T21:31:43.238Z,81.46
2023-02-25T21:34:12.818Z,80.78
2023-02-25T21:36:40.642Z,80.90
2023-02-25T21:39:09.356Z,80.25
2023-02-25T21:41:37.148Z,81.07
2023-02-25T21:44:03.806Z,81.04
2023-02-25T21:46:30.695Z,80.94
2023-02-25T21:48:57.340Z,80.40
2023-02-25T21:51:25.849Z,81.70
2023-02-25T21:53:58.610Z,81.06
2023-02-25T21:56:26.426Z,80.72
2023-02-25T21:58:58.037Z,80.16
2023-02-25T22:01:30.439Z,80.90
2023-02-25T22:03:57.786Z,79.55
2023-02-25T22:06:25.427Z,81.12
2023-02-25T22:08:53.054Z,81.59
2023-02-25T22:11:21.833Z,82.39
2023-02-25T22:13:48.753Z,82.00
2023-02-25T22:16:15.855Z,82.26
2023-02-25T22:18:42.730Z,81.63
2023-02-25T22:21:27.646Z,82.56
2023-02-25T22:23:57.044Z,82.04
2023-02-25T22:26:26.320Z,81.75
2023-02-25T22:28:58.130Z,81.71
2023-02-25T22:31:25.354Z,81.64
2023-02-25T22:33:52.236Z,81.52
2023-02-25T22:36:19.375Z,81.78
2023-02-25T22:38:47.581Z,81.24
2023-02-25T22:41:23.243Z,80.97
2023-02-25T22:43:50.326Z,80.63
2023-02-25T22:46:37.631Z,83.01
2023-02-25T22:49:05.833Z,82.87
2023-02-25T22:51:35.620Z,82.46
2023-02-25T22:54:02.429Z,82.51
2023-02-25T22:56:29.028Z,82.31
2023-02-25T22:58:55.811Z,81.89
2023-02-25T23:01:24.081Z,81.46
2023-02-25T23:03:51.382Z,81.05
2023-02-25T23:06:20.378Z,81.38
2023-02-25T23:08:47.708Z,80.81
2023-02-25T23:11:22.704Z,81.22
2023-02-25T23:13:52.556Z,80.73
2023-02-25T23:16:30.574Z,80.92
2023-02-25T23:18:59.074Z,81.21
2023-02-25T23:21:26.959Z,81.80
2023-02-25T23:23:57.186Z,81.76
2023-02-25T23:26:30.440Z,81.15
2023-02-25T23:28:58.889Z,80.54
2023-02-25T23:31:28.088Z,81.28
2023-02-25T23:34:04.208Z,80.54
2023-02-25T23:36:31.078Z,80.52
2023-02-25T23:38:59.265Z,81.18
2023-02-25T23:41:26.891Z,80.76
2023-02-25T23:43:55.049Z,80.50
2023-02-25T23:46:25.259Z,80.56
2023-02-25T23:48:56.277Z,80.55
2023-02-25T23:51:23.215Z,80.64
2023-02-25T23:53:54.582Z,80.33
2023-02-25T23:56:21.703Z,80.21
2023-02-25T23:58:53.892Z,79.85
